sensor_id;sensor_type;location;lat;lon;timestamp;temperature;humidity
10133;DHT22;5106;50.926;7.080;2023-11-21T00:01:49;8.90;96.50
10133;DHT22;5106;50.926;7.080;2023-11-21T00:04:14;8.90;96.50
10133;DHT22;5106;50.926;7.080;2023-11-21T00:06:40;8.90;96.50
10133;DHT22;5106;50.926;7.080;2023-11-21T00:09:06;8.90;96.50
10133;DHT22;5106;50.926;7.080;2023-11-21T00:11:33;8.80;96.50
10133;DHT22;5106;50.926;7.080;2023-11-21T00:13:59;8.80;96.50
10133;DHT22;5106;50.926;7.080;2023-11-21T00:16:25;8.70;96.50
10133;DHT22;5106;50.926;7.080;2023-11-21T00:18:51;8.70;96.50
10133;DHT22;5106;50.926;7.080;2023-11-21T00:21:16;8.70;96.50
10133;DHT22;5106;50.926;7.080;2023-11-21T00:23:42;8.80;96.50
10133;DHT22;5106;50.926;7.080;2023-11-21T00:26:08;8.80;96.50
10133;DHT22;5106;50.926;7.080;2023-11-21T00:28:33;8.80;96.50
10133;DHT22;5106;50.926;7.080;2023-11-21T00:30:59;8.80;96.50
10133;DHT22;5106;50.926;7.080;2023-11-21T00:33:24;8.70;96.50
10133;DHT22;5106;50.926;7.080;2023-11-21T00:35:51;8.70;96.50
10133;DHT22;5106;50.926;7.080;2023-11-21T00:38:16;8.70;96.50
10133;DHT22;5106;50.926;7.080;2023-11-21T00:40:45;8.60;96.50
10133;DHT22;5106;50.926;7.080;2023-11-21T00:43:10;8.60;96.50
10133;DHT22;5106;50.926;7.080;2023-11-21T00:45:36;8.60;96.50
10133;DHT22;5106;50.926;7.080;2023-11-21T00:48:02;8.60;96.50
10133;DHT22;5106;50.926;7.080;2023-11-21T00:50:30;8.50;96.50
10133;DHT22;5106;50.926;7.080;2023-11-21T00:52:55;8.50;96.50
10133;DHT22;5106;50.926;7.080;2023-11-21T00:55:21;8.60;96.50
10133;DHT22;5106;50.926;7.080;2023-11-21T00:57:47;8.50;96.50
10133;DHT22;5106;50.926;7.080;2023-11-21T01:00:13;8.50;96.50
10133;DHT22;5106;50.926;7.080;2023-11-21T01:02:43;8.50;96.50
10133;DHT22;5106;50.926;7.080;2023-11-21T01:05:10;8.50;96.50
10133;DHT22;5106;50.926;7.080;2023-11-21T01:07:36;8.40;96.50
10133;DHT22;5106;50.926;7.080;2023-11-21T01:10:02;8.40;96.50
10133;DHT22;5106;50.926;7.080;2023-11-21T01:12:28;8.50;96.50
10133;DHT22;5106;50.926;7.080;2023-11-21T01:14:54;8.40;96.50
10133;DHT22;5106;50.926;7.080;2023-11-21T01:17:20;8.30;96.50
10133;DHT22;5106;50.926;7.080;2023-11-21T01:19:47;8.40;96.50
10133;DHT22;5106;50.926;7.080;2023-11-21T01:22:13;8.40;96.50
10133;DHT22;5106;50.926;7.080;2023-11-21T01:24:39;8.40;96.50
10133;DHT22;5106;50.926;7.080;2023-11-21T01:27:04;8.40;96.50
10133;DHT22;5106;50.926;7.080;2023-11-21T01:29:30;8.40;96.50
10133;DHT22;5106;50.926;7.080;2023-11-21T01:31:55;8.40;96.50
10133;DHT22;5106;50.926;7.080;2023-11-21T01:34:23;8.30;96.50
10133;DHT22;5106;50.926;7.080;2023-11-21T01:36:48;8.20;96.50
10133;DHT22;5106;50.926;7.080;2023-11-21T01:39:15;8.20;96.50
10133;DHT22;5106;50.926;7.080;2023-11-21T01:41:45;8.10;96.50
10133;DHT22;5106;50.926;7.080;2023-11-21T01:44:10;8.20;96.50
10133;DHT22;5106;50.926;7.080;2023-11-21T01:46:36;8.20;96.50
10133;DHT22;5106;50.926;7.080;2023-11-21T01:49:03;8.20;96.50
10133;DHT22;5106;50.926;7.080;2023-11-21T01:51:29;8.20;96.50
10133;DHT22;5106;50.926;7.080;2023-11-21T01:53:55;8.20;96.50
10133;DHT22;5106;50.926;7.080;2023-11-21T01:56:20;8.20;96.50
10133;DHT22;5106;50.926;7.080;2023-11-21T01:58:46;8.10;96.50
10133;DHT22;5106;50.926;7.080;2023-11-21T02:01:12;8.10;96.50
10133;DHT22;5106;50.926;7.080;2023-11-21T02:03:37;8.10;96.50
10133;DHT22;5106;50.926;7.080;2023-11-21T02:06:03;8.10;96.50
10133;DHT22;5106;50.926;7.080;2023-11-21T02:08:29;8.10;96.50
10133;DHT22;5106;50.926;7.080;2023-11-21T02:10:54;8.10;96.50
10133;DHT22;5106;50.926;7.080;2023-11-21T02:13:20;8.10;96.50
10133;DHT22;5106;50.926;7.080;2023-11-21T02:15:45;8.10;96.50
10133;DHT22;5106;50.926;7.080;2023-11-21T02:18:12;8.10;96.50
10133;DHT22;5106;50.926;7.080;2023-11-21T02:20:40;8.10;96.50
10133;DHT22;5106;50.926;7.080;2023-11-21T02:23:07;8.10;96.50
10133;DHT22;5106;50.926;7.080;2023-11-21T02:25:33;8.00;96.50
10133;DHT22;5106;50.926;7.080;2023-11-21T02:28:03;8.00;96.50
10133;DHT22;5106;50.926;7.080;2023-11-21T02:30:29;7.90;96.50
10133;DHT22;5106;50.926;7.080;2023-11-21T02:32:57;7.90;96.50
10133;DHT22;5106;50.926;7.080;2023-11-21T02:35:23;7.90;96.50
10133;DHT22;5106;50.926;7.080;2023-11-21T02:37:49;7.90;96.50
10133;DHT22;5106;50.926;7.080;2023-11-21T02:40:15;7.90;96.50
10133;DHT22;5106;50.926;7.080;2023-11-21T02:42:44;7.90;96.50
10133;DHT22;5106;50.926;7.080;2023-11-21T02:45:10;7.90;96.50
10133;DHT22;5106;50.926;7.080;2023-11-21T02:47:38;7.90;96.50
10133;DHT22;5106;50.926;7.080;2023-11-21T02:50:04;7.90;96.50
10133;DHT22;5106;50.926;7.080;2023-11-21T02:52:31;7.90;96.50
10133;DHT22;5106;50.926;7.080;2023-11-21T02:54:58;7.90;96.50
10133;DHT22;5106;50.926;7.080;2023-11-21T02:57:24;7.90;96.50
10133;DHT22;5106;50.926;7.080;2023-11-21T02:59:49;7.90;96.50
10133;DHT22;5106;50.926;7.080;2023-11-21T03:02:15;7.90;96.50
10133;DHT22;5106;50.926;7.080;2023-11-21T03:04:41;7.90;96.50
10133;DHT22;5106;50.926;7.080;2023-11-21T03:07:08;7.90;96.50
10133;DHT22;5106;50.926;7.080;2023-11-21T03:09:34;7.90;96.50
10133;DHT22;5106;50.926;7.080;2023-11-21T03:12:00;7.90;96.50
10133;DHT22;5106;50.926;7.080;2023-11-21T03:14:26;8.00;96.50
10133;DHT22;5106;50.926;7.080;2023-11-21T03:16:51;7.90;96.50
10133;DHT22;5106;50.926;7.080;2023-11-21T03:19:17;7.80;96.50
10133;DHT22;5106;50.926;7.080;2023-11-21T03:21:42;7.80;96.50
10133;DHT22;5106;50.926;7.080;2023-11-21T03:24:08;7.80;96.50
10133;DHT22;5106;50.926;7.080;2023-11-21T03:26:34;7.80;96.50
10133;DHT22;5106;50.926;7.080;2023-11-21T03:28:59;7.90;96.50
10133;DHT22;5106;50.926;7.080;2023-11-21T03:31:25;7.90;96.50
10133;DHT22;5106;50.926;7.080;2023-11-21T03:33:52;7.80;96.50
10133;DHT22;5106;50.926;7.080;2023-11-21T03:36:19;7.90;96.50
10133;DHT22;5106;50.926;7.080;2023-11-21T03:38:45;7.90;96.50
10133;DHT22;5106;50.926;7.080;2023-11-21T03:41:10;7.90;96.50
10133;DHT22;5106;50.926;7.080;2023-11-21T03:43:37;7.90;96.50
10133;DHT22;5106;50.926;7.080;2023-11-21T03:46:03;8.00;96.50
10133;DHT22;5106;50.926;7.080;2023-11-21T03:48:28;8.00;96.50
10133;DHT22;5106;50.926;7.080;2023-11-21T03:50:54;8.00;96.50
10133;DHT22;5106;50.926;7.080;2023-11-21T03:53:20;8.10;96.50
10133;DHT22;5106;50.926;7.080;2023-11-21T03:55:45;8.10;96.50
10133;DHT22;5106;50.926;7.080;2023-11-21T03:58:11;8.10;96.50
10133;DHT22;5106;50.926;7.080;2023-11-21T04:00:36;8.10;96.50
10133;DHT22;5106;50.926;7.080;2023-11-21T04:03:02;8.10;96.50
10133;DHT22;5106;50.926;7.080;2023-11-21T04:05:28;8.20;96.50
10133;DHT22;5106;50.926;7.080;2023-11-21T04:07:54;8.20;96.50
10133;DHT22;5106;50.926;7.080;2023-11-21T04:10:19;8.20;96.50
10133;DHT22;5106;50.926;7.080;2023-11-21T04:12:45;8.20;96.50
10133;DHT22;5106;50.926;7.080;2023-11-21T04:15:11;8.20;96.50
10133;DHT22;5106;50.926;7.080;2023-11-21T04:17:39;8.20;96.50
10133;DHT22;5106;50.926;7.080;2023-11-21T04:20:05;8.20;96.50
10133;DHT22;5106;50.926;7.080;2023-11-21T04:22:40;8.20;96.50
10133;DHT22;5106;50.926;7.080;2023-11-21T04:25:13;8.20;96.50
10133;DHT22;5106;50.926;7.080;2023-11-21T04:27:40;8.20;96.50
10133;DHT22;5106;50.926;7.080;2023-11-21T04:30:06;8.20;96.50
10133;DHT22;5106;50.926;7.080;2023-11-21T04:32:32;8.20;96.50
10133;DHT22;5106;50.926;7.080;2023-11-21T04:34:58;8.20;96.50
10133;DHT22;5106;50.926;7.080;2023-11-21T04:37:23;8.20;96.50
10133;DHT22;5106;50.926;7.080;2023-11-21T04:39:49;8.20;96.50
10133;DHT22;5106;50.926;7.080;2023-11-21T04:42:15;8.20;96.50
10133;DHT22;5106;50.926;7.080;2023-11-21T04:44:41;8.20;96.50
10133;DHT22;5106;50.926;7.080;2023-11-21T04:47:06;8.20;96.50
10133;DHT22;5106;50.926;7.080;2023-11-21T04:49:33;8.20;96.50
10133;DHT22;5106;50.926;7.080;2023-11-21T04:51:59;8.20;96.50
10133;DHT22;5106;50.926;7.080;2023-11-21T04:54:24;8.20;96.50
10133;DHT22;5106;50.926;7.080;2023-11-21T04:56:50;8.20;96.50
10133;DHT22;5106;50.926;7.080;2023-11-21T04:59:15;8.10;96.50
10133;DHT22;5106;50.926;7.080;2023-11-21T05:01:41;8.10;96.50
10133;DHT22;5106;50.926;7.080;2023-11-21T05:04:06;8.10;96.50
10133;DHT22;5106;50.926;7.080;2023-11-21T05:06:34;8.10;96.50
10133;DHT22;5106;50.926;7.080;2023-11-21T05:09:00;8.10;96.50
10133;DHT22;5106;50.926;7.080;2023-11-21T05:11:26;8.10;96.50
10133;DHT22;5106;50.926;7.080;2023-11-21T05:13:52;8.20;96.50
10133;DHT22;5106;50.926;7.080;2023-11-21T05:16:19;8.20;96.50
10133;DHT22;5106;50.926;7.080;2023-11-21T05:18:45;8.20;96.50
10133;DHT22;5106;50.926;7.080;2023-11-21T05:21:10;8.20;96.50
10133;DHT22;5106;50.926;7.080;2023-11-21T05:23:36;8.20;96.50
10133;DHT22;5106;50.926;7.080;2023-11-21T05:26:03;8.20;96.50
10133;DHT22;5106;50.926;7.080;2023-11-21T05:28:28;8.20;96.50
10133;DHT22;5106;50.926;7.080;2023-11-21T05:30:54;8.20;96.50
10133;DHT22;5106;50.926;7.080;2023-11-21T05:33:20;8.20;96.50
10133;DHT22;5106;50.926;7.080;2023-11-21T05:35:46;8.20;96.50
10133;DHT22;5106;50.926;7.080;2023-11-21T05:38:14;8.20;96.50
10133;DHT22;5106;50.926;7.080;2023-11-21T05:40:39;8.20;96.50
10133;DHT22;5106;50.926;7.080;2023-11-21T05:43:05;8.30;96.50
10133;DHT22;5106;50.926;7.080;2023-11-21T05:45:30;8.30;96.50
10133;DHT22;5106;50.926;7.080;2023-11-21T05:47:57;8.30;96.50
10133;DHT22;5106;50.926;7.080;2023-11-21T05:50:23;8.30;96.50
10133;DHT22;5106;50.926;7.080;2023-11-21T05:52:48;8.30;96.50
10133;DHT22;5106;50.926;7.080;2023-11-21T05:55:14;8.30;96.50
10133;DHT22;5106;50.926;7.080;2023-11-21T05:57:41;8.30;96.50
10133;DHT22;5106;50.926;7.080;2023-11-21T06:00:09;8.30;96.50
10133;DHT22;5106;50.926;7.080;2023-11-21T06:02:43;8.30;96.50
10133;DHT22;5106;50.926;7.080;2023-11-21T06:05:10;8.20;96.50
10133;DHT22;5106;50.926;7.080;2023-11-21T06:07:37;8.30;96.50
10133;DHT22;5106;50.926;7.080;2023-11-21T06:10:04;8.30;96.50
10133;DHT22;5106;50.926;7.080;2023-11-21T06:12:32;8.30;96.50
10133;DHT22;5106;50.926;7.080;2023-11-21T06:15:02;8.30;96.50
10133;DHT22;5106;50.926;7.080;2023-11-21T06:17:30;8.30;96.50
10133;DHT22;5106;50.926;7.080;2023-11-21T06:19:56;8.30;96.50
10133;DHT22;5106;50.926;7.080;2023-11-21T06:22:21;8.30;96.50
10133;DHT22;5106;50.926;7.080;2023-11-21T06:24:47;8.30;96.50
10133;DHT22;5106;50.926;7.080;2023-11-21T06:27:12;8.30;96.50
10133;DHT22;5106;50.926;7.080;2023-11-21T06:29:38;8.30;96.50
10133;DHT22;5106;50.926;7.080;2023-11-21T06:32:04;8.30;96.50
10133;DHT22;5106;50.926;7.080;2023-11-21T06:34:30;8.30;96.50
10133;DHT22;5106;50.926;7.080;2023-11-21T06:36:56;8.30;96.50
10133;DHT22;5106;50.926;7.080;2023-11-21T06:39:22;8.30;96.50
10133;DHT22;5106;50.926;7.080;2023-11-21T06:41:52;8.30;96.50
10133;DHT22;5106;50.926;7.080;2023-11-21T06:44:17;8.30;96.50
10133;DHT22;5106;50.926;7.080;2023-11-21T06:46:45;8.30;96.50
10133;DHT22;5106;50.926;7.080;2023-11-21T06:49:10;8.30;96.50
10133;DHT22;5106;50.926;7.080;2023-11-21T06:51:36;8.30;96.50
10133;DHT22;5106;50.926;7.080;2023-11-21T06:54:02;8.30;96.50
10133;DHT22;5106;50.926;7.080;2023-11-21T06:56:28;8.30;96.50
10133;DHT22;5106;50.926;7.080;2023-11-21T06:58:53;8.30;96.50
10133;DHT22;5106;50.926;7.080;2023-11-21T07:01:19;8.30;96.50
10133;DHT22;5106;50.926;7.080;2023-11-21T07:03:45;8.30;96.50
10133;DHT22;5106;50.926;7.080;2023-11-21T07:06:11;8.30;96.50
10133;DHT22;5106;50.926;7.080;2023-11-21T07:08:37;8.30;96.50
10133;DHT22;5106;50.926;7.080;2023-11-21T07:11:03;8.40;96.50
10133;DHT22;5106;50.926;7.080;2023-11-21T07:13:29;8.40;96.50
10133;DHT22;5106;50.926;7.080;2023-11-21T07:15:57;8.40;96.50
10133;DHT22;5106;50.926;7.080;2023-11-21T07:18:23;8.40;96.50
10133;DHT22;5106;50.926;7.080;2023-11-21T07:20:49;8.40;96.50
10133;DHT22;5106;50.926;7.080;2023-11-21T07:23:14;8.40;96.50
10133;DHT22;5106;50.926;7.080;2023-11-21T07:25:41;8.40;96.50
10133;DHT22;5106;50.926;7.080;2023-11-21T07:28:08;8.50;96.50
10133;DHT22;5106;50.926;7.080;2023-11-21T07:30:34;8.50;96.50
10133;DHT22;5106;50.926;7.080;2023-11-21T07:32:59;8.50;96.50
10133;DHT22;5106;50.926;7.080;2023-11-21T07:35:25;8.60;96.50
10133;DHT22;5106;50.926;7.080;2023-11-21T07:37:50;8.60;96.50
10133;DHT22;5106;50.926;7.080;2023-11-21T07:40:16;8.60;96.50
10133;DHT22;5106;50.926;7.080;2023-11-21T07:42:42;8.60;96.50
10133;DHT22;5106;50.926;7.080;2023-11-21T07:45:08;8.60;96.50
10133;DHT22;5106;50.926;7.080;2023-11-21T07:47:34;8.50;96.50
10133;DHT22;5106;50.926;7.080;2023-11-21T07:50:00;8.60;96.50
10133;DHT22;5106;50.926;7.080;2023-11-21T07:52:28;8.60;96.50
10133;DHT22;5106;50.926;7.080;2023-11-21T07:54:53;8.60;96.50
10133;DHT22;5106;50.926;7.080;2023-11-21T07:57:19;8.60;96.50
10133;DHT22;5106;50.926;7.080;2023-11-21T07:59:44;8.60;96.50
10133;DHT22;5106;50.926;7.080;2023-11-21T08:02:10;8.60;96.50
10133;DHT22;5106;50.926;7.080;2023-11-21T08:04:35;8.60;96.50
10133;DHT22;5106;50.926;7.080;2023-11-21T08:07:01;8.70;96.50
10133;DHT22;5106;50.926;7.080;2023-11-21T08:09:27;8.70;96.50
10133;DHT22;5106;50.926;7.080;2023-11-21T08:11:53;8.70;96.50
10133;DHT22;5106;50.926;7.080;2023-11-21T08:14:18;8.70;96.50
10133;DHT22;5106;50.926;7.080;2023-11-21T08:16:45;8.70;96.50
10133;DHT22;5106;50.926;7.080;2023-11-21T08:19:11;8.70;96.50
10133;DHT22;5106;50.926;7.080;2023-11-21T08:21:37;8.80;96.50
10133;DHT22;5106;50.926;7.080;2023-11-21T08:24:08;8.80;96.50
10133;DHT22;5106;50.926;7.080;2023-11-21T08:26:36;8.80;96.50
10133;DHT22;5106;50.926;7.080;2023-11-21T08:29:02;8.90;96.50
10133;DHT22;5106;50.926;7.080;2023-11-21T08:31:28;8.90;96.50
10133;DHT22;5106;50.926;7.080;2023-11-21T08:33:54;8.90;96.50
10133;DHT22;5106;50.926;7.080;2023-11-21T08:36:21;8.90;96.50
10133;DHT22;5106;50.926;7.080;2023-11-21T08:38:48;9.00;96.50
10133;DHT22;5106;50.926;7.080;2023-11-21T08:41:14;9.00;96.50
10133;DHT22;5106;50.926;7.080;2023-11-21T08:43:40;9.00;96.50
10133;DHT22;5106;50.926;7.080;2023-11-21T08:46:06;9.00;96.50
10133;DHT22;5106;50.926;7.080;2023-11-21T08:48:35;9.00;96.50
10133;DHT22;5106;50.926;7.080;2023-11-21T08:51:01;9.00;96.50
10133;DHT22;5106;50.926;7.080;2023-11-21T08:53:27;9.10;96.50
10133;DHT22;5106;50.926;7.080;2023-11-21T08:55:52;9.00;96.50
10133;DHT22;5106;50.926;7.080;2023-11-21T08:58:19;9.10;96.50
10133;DHT22;5106;50.926;7.080;2023-11-21T09:00:45;9.10;96.50
10133;DHT22;5106;50.926;7.080;2023-11-21T09:03:12;9.10;96.50
10133;DHT22;5106;50.926;7.080;2023-11-21T09:05:39;9.10;96.50
10133;DHT22;5106;50.926;7.080;2023-11-21T09:08:05;9.20;96.50
10133;DHT22;5106;50.926;7.080;2023-11-21T09:10:31;9.20;96.50
10133;DHT22;5106;50.926;7.080;2023-11-21T09:12:57;9.20;96.50
10133;DHT22;5106;50.926;7.080;2023-11-21T09:15:24;9.10;96.50
10133;DHT22;5106;50.926;7.080;2023-11-21T09:17:50;9.10;96.50
10133;DHT22;5106;50.926;7.080;2023-11-21T09:20:16;9.20;96.50
10133;DHT22;5106;50.926;7.080;2023-11-21T09:22:42;9.20;96.50
10133;DHT22;5106;50.926;7.080;2023-11-21T09:25:07;9.30;96.50
10133;DHT22;5106;50.926;7.080;2023-11-21T09:27:34;9.30;96.50
10133;DHT22;5106;50.926;7.080;2023-11-21T09:30:01;9.30;96.50
10133;DHT22;5106;50.926;7.080;2023-11-21T09:32:27;9.40;96.50
10133;DHT22;5106;50.926;7.080;2023-11-21T09:34:52;9.40;96.50
10133;DHT22;5106;50.926;7.080;2023-11-21T09:37:20;9.40;96.50
10133;DHT22;5106;50.926;7.080;2023-11-21T09:39:46;9.50;96.50
10133;DHT22;5106;50.926;7.080;2023-11-21T09:42:33;9.50;96.50
10133;DHT22;5106;50.926;7.080;2023-11-21T09:45:46;9.50;96.50
10133;DHT22;5106;50.926;7.080;2023-11-21T09:47:57;9.50;96.50
10133;DHT22;5106;50.926;7.080;2023-11-21T09:50:23;9.50;96.50
10133;DHT22;5106;50.926;7.080;2023-11-21T09:53:16;9.50;96.50
10133;DHT22;5106;50.926;7.080;2023-11-21T09:55:44;9.60;96.50
10133;DHT22;5106;50.926;7.080;2023-11-21T09:58:10;9.60;96.50
10133;DHT22;5106;50.926;7.080;2023-11-21T10:00:44;9.60;96.50
10133;DHT22;5106;50.926;7.080;2023-11-21T10:03:10;9.50;96.50
10133;DHT22;5106;50.926;7.080;2023-11-21T10:05:37;9.50;96.50
10133;DHT22;5106;50.926;7.080;2023-11-21T10:08:10;9.50;96.50
10133;DHT22;5106;50.926;7.080;2023-11-21T10:10:37;9.50;96.50
10133;DHT22;5106;50.926;7.080;2023-11-21T10:13:05;9.50;96.50
10133;DHT22;5106;50.926;7.080;2023-11-21T10:15:34;9.50;96.50
10133;DHT22;5106;50.926;7.080;2023-11-21T10:18:02;9.60;96.50
10133;DHT22;5106;50.926;7.080;2023-11-21T10:20:28;9.60;96.50
10133;DHT22;5106;50.926;7.080;2023-11-21T10:22:54;9.70;96.50
10133;DHT22;5106;50.926;7.080;2023-11-21T10:25:22;9.70;96.50
10133;DHT22;5106;50.926;7.080;2023-11-21T10:28:02;9.70;96.50
10133;DHT22;5106;50.926;7.080;2023-11-21T10:30:38;9.70;96.50
10133;DHT22;5106;50.926;7.080;2023-11-21T10:33:07;9.60;96.50
10133;DHT22;5106;50.926;7.080;2023-11-21T10:35:45;9.60;96.50
10133;DHT22;5106;50.926;7.080;2023-11-21T10:38:16;9.60;96.50
10133;DHT22;5106;50.926;7.080;2023-11-21T10:40:43;9.60;96.50
10133;DHT22;5106;50.926;7.080;2023-11-21T10:43:10;9.60;96.50
10133;DHT22;5106;50.926;7.080;2023-11-21T10:45:39;9.60;96.50
10133;DHT22;5106;50.926;7.080;2023-11-21T10:48:23;9.60;96.50
10133;DHT22;5106;50.926;7.080;2023-11-21T10:50:49;9.60;96.50
10133;DHT22;5106;50.926;7.080;2023-11-21T10:53:15;9.60;96.50
10133;DHT22;5106;50.926;7.080;2023-11-21T10:55:41;9.60;96.50
10133;DHT22;5106;50.926;7.080;2023-11-21T10:58:07;9.60;96.50
10133;DHT22;5106;50.926;7.080;2023-11-21T11:00:33;9.70;96.50
10133;DHT22;5106;50.926;7.080;2023-11-21T11:03:00;9.70;96.50
10133;DHT22;5106;50.926;7.080;2023-11-21T11:05:27;9.80;96.50
10133;DHT22;5106;50.926;7.080;2023-11-21T11:08:05;9.70;96.50
10133;DHT22;5106;50.926;7.080;2023-11-21T11:10:31;9.70;96.50
10133;DHT22;5106;50.926;7.080;2023-11-21T11:12:58;9.70;96.50
10133;DHT22;5106;50.926;7.080;2023-11-21T11:15:24;9.70;96.50
10133;DHT22;5106;50.926;7.080;2023-11-21T11:17:50;9.70;96.50
10133;DHT22;5106;50.926;7.080;2023-11-21T11:20:16;9.60;96.50
10133;DHT22;5106;50.926;7.080;2023-11-21T11:28:12;9.60;96.50
10133;DHT22;5106;50.926;7.080;2023-11-21T11:31:11;9.70;96.50
10133;DHT22;5106;50.926;7.080;2023-11-21T11:34:01;9.70;96.50
10133;DHT22;5106;50.926;7.080;2023-11-21T11:37:00;9.70;96.50
10133;DHT22;5106;50.926;7.080;2023-11-21T11:39:41;9.70;96.50
10133;DHT22;5106;50.926;7.080;2023-11-21T11:42:12;9.70;96.50
10133;DHT22;5106;50.926;7.080;2023-11-21T11:47:26;9.80;96.50
10133;DHT22;5106;50.926;7.080;2023-11-21T11:52:37;9.80;96.50
10133;DHT22;5106;50.926;7.080;2023-11-21T11:55:13;9.80;96.50
10133;DHT22;5106;50.926;7.080;2023-11-21T11:57:40;9.90;96.50
10133;DHT22;5106;50.926;7.080;2023-11-21T12:02:58;9.90;96.50
10133;DHT22;5106;50.926;7.080;2023-11-21T12:05:31;9.90;96.50
10133;DHT22;5106;50.926;7.080;2023-11-21T12:08:11;9.90;96.50
10133;DHT22;5106;50.926;7.080;2023-11-21T12:10:38;9.90;96.50
10133;DHT22;5106;50.926;7.080;2023-11-21T12:13:09;9.90;96.50
10133;DHT22;5106;50.926;7.080;2023-11-21T12:15:36;9.90;96.50
10133;DHT22;5106;50.926;7.080;2023-11-21T12:18:02;9.90;96.50
10133;DHT22;5106;50.926;7.080;2023-11-21T12:20:30;9.90;96.50
10133;DHT22;5106;50.926;7.080;2023-11-21T12:22:58;9.90;96.50
10133;DHT22;5106;50.926;7.080;2023-11-21T12:25:26;9.90;96.50
10133;DHT22;5106;50.926;7.080;2023-11-21T12:27:55;10.00;96.50
10133;DHT22;5106;50.926;7.080;2023-11-21T12:30:26;9.90;96.50
10133;DHT22;5106;50.926;7.080;2023-11-21T12:32:55;9.90;96.50
10133;DHT22;5106;50.926;7.080;2023-11-21T12:35:23;10.00;96.50
10133;DHT22;5106;50.926;7.080;2023-11-21T12:37:49;9.90;96.50
10133;DHT22;5106;50.926;7.080;2023-11-21T12:40:17;10.00;96.50
10133;DHT22;5106;50.926;7.080;2023-11-21T12:42:53;10.00;96.50
10133;DHT22;5106;50.926;7.080;2023-11-21T12:45:24;10.10;96.50
10133;DHT22;5106;50.926;7.080;2023-11-21T12:47:57;10.20;96.50
10133;DHT22;5106;50.926;7.080;2023-11-21T12:50:26;10.20;96.50
10133;DHT22;5106;50.926;7.080;2023-11-21T12:52:57;10.20;96.50
10133;DHT22;5106;50.926;7.080;2023-11-21T12:55:24;10.20;96.50
10133;DHT22;5106;50.926;7.080;2023-11-21T12:57:55;10.30;96.50
10133;DHT22;5106;50.926;7.080;2023-11-21T13:00:32;10.30;96.50
10133;DHT22;5106;50.926;7.080;2023-11-21T13:02:59;10.20;96.50
10133;DHT22;5106;50.926;7.080;2023-11-21T13:07:59;10.20;96.50
10133;DHT22;5106;50.926;7.080;2023-11-21T13:10:29;10.30;96.50
10133;DHT22;5106;50.926;7.080;2023-11-21T13:12:59;10.20;96.50
10133;DHT22;5106;50.926;7.080;2023-11-21T13:15:28;10.20;96.50
10133;DHT22;5106;50.926;7.080;2023-11-21T13:17:57;10.20;96.50
10133;DHT22;5106;50.926;7.080;2023-11-21T13:20:23;10.10;96.50
10133;DHT22;5106;50.926;7.080;2023-11-21T13:22:54;10.20;96.50
10133;DHT22;5106;50.926;7.080;2023-11-21T13:25:23;10.20;96.50
10133;DHT22;5106;50.926;7.080;2023-11-21T13:27:49;10.20;96.50
10133;DHT22;5106;50.926;7.080;2023-11-21T13:30:15;10.30;96.50
10133;DHT22;5106;50.926;7.080;2023-11-21T13:32:43;10.30;96.50
10133;DHT22;5106;50.926;7.080;2023-11-21T13:35:09;10.30;96.50
10133;DHT22;5106;50.926;7.080;2023-11-21T13:37:44;10.30;96.50
10133;DHT22;5106;50.926;7.080;2023-11-21T13:40:11;10.30;96.50
10133;DHT22;5106;50.926;7.080;2023-11-21T13:42:40;10.30;96.50
10133;DHT22;5106;50.926;7.080;2023-11-21T13:45:07;10.30;96.50
10133;DHT22;5106;50.926;7.080;2023-11-21T13:47:32;10.30;96.50
10133;DHT22;5106;50.926;7.080;2023-11-21T13:49:59;10.30;96.50
10133;DHT22;5106;50.926;7.080;2023-11-21T13:52:26;10.30;96.50
10133;DHT22;5106;50.926;7.080;2023-11-21T13:54:53;10.20;96.50
10133;DHT22;5106;50.926;7.080;2023-11-21T13:57:19;10.20;96.50
10133;DHT22;5106;50.926;7.080;2023-11-21T13:59:46;10.20;96.50
10133;DHT22;5106;50.926;7.080;2023-11-21T14:02:11;10.20;96.50
10133;DHT22;5106;50.926;7.080;2023-11-21T14:04:44;10.10;96.50
10133;DHT22;5106;50.926;7.080;2023-11-21T14:07:21;10.10;96.50
10133;DHT22;5106;50.926;7.080;2023-11-21T14:10:01;10.10;96.50
10133;DHT22;5106;50.926;7.080;2023-11-21T14:12:27;10.10;96.50
10133;DHT22;5106;50.926;7.080;2023-11-21T14:14:54;10.10;96.50
10133;DHT22;5106;50.926;7.080;2023-11-21T14:17:20;10.10;96.50
10133;DHT22;5106;50.926;7.080;2023-11-21T14:19:49;10.10;96.50
10133;DHT22;5106;50.926;7.080;2023-11-21T14:22:14;10.10;96.50
10133;DHT22;5106;50.926;7.080;2023-11-21T14:24:40;10.10;96.50
10133;DHT22;5106;50.926;7.080;2023-11-21T14:27:13;10.10;96.50
10133;DHT22;5106;50.926;7.080;2023-11-21T14:29:38;10.10;96.50
10133;DHT22;5106;50.926;7.080;2023-11-21T14:32:08;10.20;96.50
10133;DHT22;5106;50.926;7.080;2023-11-21T14:34:34;10.20;96.50
10133;DHT22;5106;50.926;7.080;2023-11-21T14:37:00;10.20;96.50
10133;DHT22;5106;50.926;7.080;2023-11-21T14:39:28;10.20;96.50
10133;DHT22;5106;50.926;7.080;2023-11-21T14:41:55;10.20;96.50
10133;DHT22;5106;50.926;7.080;2023-11-21T14:44:24;10.20;96.50
10133;DHT22;5106;50.926;7.080;2023-11-21T14:46:53;10.20;96.50
10133;DHT22;5106;50.926;7.080;2023-11-21T14:49:20;10.20;96.50
10133;DHT22;5106;50.926;7.080;2023-11-21T14:51:51;10.10;96.50
10133;DHT22;5106;50.926;7.080;2023-11-21T14:54:31;10.10;96.50
10133;DHT22;5106;50.926;7.080;2023-11-21T14:57:10;10.10;96.50
10133;DHT22;5106;50.926;7.080;2023-11-21T14:59:47;10.00;96.50
10133;DHT22;5106;50.926;7.080;2023-11-21T15:02:16;10.00;96.50
10133;DHT22;5106;50.926;7.080;2023-11-21T15:04:44;10.00;96.50
10133;DHT22;5106;50.926;7.080;2023-11-21T15:07:10;10.00;96.50
10133;DHT22;5106;50.926;7.080;2023-11-21T15:09:38;10.00;96.50
10133;DHT22;5106;50.926;7.080;2023-11-21T15:12:08;10.00;96.50
10133;DHT22;5106;50.926;7.080;2023-11-21T15:17:06;9.90;96.50
10133;DHT22;5106;50.926;7.080;2023-11-21T15:19:33;9.90;96.50
10133;DHT22;5106;50.926;7.080;2023-11-21T15:21:59;9.90;96.50
10133;DHT22;5106;50.926;7.080;2023-11-21T15:24:25;9.90;96.50
10133;DHT22;5106;50.926;7.080;2023-11-21T15:26:51;9.90;96.50
10133;DHT22;5106;50.926;7.080;2023-11-21T15:29:16;9.80;96.50
10133;DHT22;5106;50.926;7.080;2023-11-21T15:31:42;9.80;96.50
10133;DHT22;5106;50.926;7.080;2023-11-21T15:34:16;9.80;96.50
10133;DHT22;5106;50.926;7.080;2023-11-21T15:36:42;9.80;96.50
10133;DHT22;5106;50.926;7.080;2023-11-21T15:39:09;9.80;96.50
10133;DHT22;5106;50.926;7.080;2023-11-21T15:41:37;9.80;96.50
10133;DHT22;5106;50.926;7.080;2023-11-21T15:44:04;9.70;96.50
10133;DHT22;5106;50.926;7.080;2023-11-21T15:46:30;9.70;96.50
10133;DHT22;5106;50.926;7.080;2023-11-21T15:48:56;9.80;96.50
10133;DHT22;5106;50.926;7.080;2023-11-21T15:51:22;9.70;96.50
10133;DHT22;5106;50.926;7.080;2023-11-21T15:53:48;9.70;96.50
10133;DHT22;5106;50.926;7.080;2023-11-21T15:56:14;9.70;96.50
10133;DHT22;5106;50.926;7.080;2023-11-21T15:58:40;9.70;96.50
10133;DHT22;5106;50.926;7.080;2023-11-21T16:01:08;9.70;96.50
10133;DHT22;5106;50.926;7.080;2023-11-21T16:03:36;9.80;96.50
10133;DHT22;5106;50.926;7.080;2023-11-21T16:06:01;9.80;96.50
10133;DHT22;5106;50.926;7.080;2023-11-21T16:08:28;9.70;96.50
10133;DHT22;5106;50.926;7.080;2023-11-21T16:10:54;9.70;96.50
10133;DHT22;5106;50.926;7.080;2023-11-21T16:13:20;9.70;96.50
10133;DHT22;5106;50.926;7.080;2023-11-21T16:15:46;9.60;96.50
10133;DHT22;5106;50.926;7.080;2023-11-21T16:18:12;9.60;96.50
10133;DHT22;5106;50.926;7.080;2023-11-21T16:20:37;9.60;96.50